Private Wetterstation Sandau
Wetterdaten: Montag, 10.09.2012
Datum Zeit Temp. A. Feuchte A. Luftdruck Regen Wind Richtung Richtung Taupunkt Windchill
10.09.2012 00:01 17,5 C 82 % 1014,9 hPa 0,0 l/m 0,0 km/h (0 Bft) O-SO 112 14,4 C 17,5 C
10.09.2012 00:06 17,5 C 82 % 1015,0 hPa 0,0 l/m 9,4 km/h (2 Bft) SO 135 14,4 C 17,5 C
10.09.2012 00:11 17,5 C 82 % 1014,9 hPa 0,0 l/m 3,6 km/h (1 Bft) O-SO 112 14,4 C 17,5 C
10.09.2012 00:16 17,4 C 82 % 1014,8 hPa 0,0 l/m 4,7 km/h (1 Bft) O-SO 112 14,3 C 17,4 C
10.09.2012 00:21 17,4 C 82 % 1014,7 hPa 0,0 l/m 2,5 km/h (1 Bft) S-SO 157 14,3 C 17,4 C
10.09.2012 00:26 17,3 C 82 % 1014,8 hPa 0,0 l/m 6,1 km/h (2 Bft) SO 135 14,2 C 17,3 C
10.09.2012 00:31 17,3 C 83 % 1014,8 hPa 0,0 l/m 4,0 km/h (1 Bft) SO 135 14,4 C 17,3 C
10.09.2012 00:36 17,3 C 83 % 1014,7 hPa 0,0 l/m 2,9 km/h (1 Bft) O-SO 112 14,4 C 17,3 C
10.09.2012 00:41 17,2 C 83 % 1014,6 hPa 0,0 l/m 4,0 km/h (1 Bft) SO 135 14,3 C 17,2 C
10.09.2012 00:46 17,2 C 83 % 1014,6 hPa 0,0 l/m 10,1 km/h (2 Bft) S-SO 157 14,3 C 17,2 C
10.09.2012 00:51 17,2 C 83 % 1014,5 hPa 0,0 l/m 4,0 km/h (1 Bft) SO 135 14,3 C 17,2 C
10.09.2012 00:56 17,1 C 84 % 1014,5 hPa 0,0 l/m 2,9 km/h (1 Bft) O-SO 112 14,4 C 17,1 C
10.09.2012 01:01 17,1 C 84 % 1014,5 hPa 0,0 l/m 9,4 km/h (2 Bft) SO 135 14,4 C 17,1 C
10.09.2012 01:06 17,1 C 84 % 1014,4 hPa 0,0 l/m 4,7 km/h (1 Bft) O-SO 112 14,4 C 17,1 C
10.09.2012 01:11 16,9 C 84 % 1014,2 hPa 0,0 l/m 4,0 km/h (1 Bft) O-SO 112 14,2 C 16,9 C
10.09.2012 01:16 16,9 C 84 % 1014,3 hPa 0,0 l/m 4,0 km/h (1 Bft) SO 135 14,2 C 16,9 C
10.09.2012 01:21 16,9 C 84 % 1014,1 hPa 0,0 l/m 2,2 km/h (1 Bft) O-SO 112 14,2 C 16,9 C
10.09.2012 01:26 16,8 C 84 % 1014,1 hPa 0,0 l/m 3,6 km/h (1 Bft) SO 135 14,1 C 16,8 C
10.09.2012 01:31 16,8 C 84 % 1014,1 hPa 0,0 l/m 2,5 km/h (1 Bft) SO 135 14,1 C 16,8 C
10.09.2012 01:36 16,7 C 85 % 1014,0 hPa 0,0 l/m 1,8 km/h (1 Bft) SO 135 14,2 C 16,7 C
10.09.2012 01:41 16,6 C 85 % 1013,8 hPa 0,0 l/m 2,5 km/h (1 Bft) O 90 14,1 C 16,6 C
10.09.2012 01:46 16,5 C 85 % 1013,9 hPa 0,0 l/m 3,2 km/h (1 Bft) O-SO 112 14,0 C 16,5 C
10.09.2012 01:51 16,5 C 85 % 1013,8 hPa 0,0 l/m 4,0 km/h (1 Bft) O-SO 112 14,0 C 16,5 C
10.09.2012 01:56 16,4 C 85 % 1013,8 hPa 0,0 l/m 5,8 km/h (2 Bft) S-SO 157 13,9 C 16,4 C
10.09.2012 02:01 16,4 C 85 % 1013,8 hPa 0,0 l/m 2,2 km/h (1 Bft) SO 135 13,9 C 16,4 C
10.09.2012 02:06 16,4 C 85 % 1013,8 hPa 0,0 l/m 5,4 km/h (1 Bft) SO 135 13,9 C 16,4 C
10.09.2012 02:11 16,3 C 85 % 1013,7 hPa 0,0 l/m 0,0 km/h (0 Bft) O-SO 112 13,8 C 16,3 C
10.09.2012 02:16 16,3 C 85 % 1013,6 hPa 0,0 l/m 2,5 km/h (1 Bft) O-SO 112 13,8 C 16,3 C
10.09.2012 02:21 16,3 C 86 % 1013,5 hPa 0,0 l/m 0,0 km/h (0 Bft) O-SO 112 14,0 C 16,3 C
10.09.2012 02:26 16,2 C 86 % 1013,5 hPa 0,0 l/m 4,3 km/h (1 Bft) SO 135 13,9 C 16,2 C
10.09.2012 02:31 16,2 C 86 % 1013,6 hPa 0,0 l/m 7,2 km/h (2 Bft) SO 135 13,9 C 16,2 C
10.09.2012 02:36 16,1 C 86 % 1013,6 hPa 0,0 l/m 3,6 km/h (1 Bft) S-SO 157 13,8 C 16,1 C
10.09.2012 02:41 16,1 C 86 % 1013,5 hPa 0,0 l/m 5,4 km/h (1 Bft) S-SO 157 13,8 C 16,1 C
10.09.2012 02:46 16,1 C 86 % 1013,5 hPa 0,0 l/m 4,0 km/h (1 Bft) SO 135 13,8 C 16,1 C
10.09.2012 02:51 16,0 C 86 % 1013,6 hPa 0,0 l/m 2,9 km/h (1 Bft) SO 135 13,7 C 16,0 C
10.09.2012 02:56 15,9 C 86 % 1013,7 hPa 0,0 l/m 0,0 km/h (0 Bft) S-SO 157 13,6 C 15,9 C
10.09.2012 03:01 15,9 C 86 % 1013,6 hPa 0,0 l/m 0,0 km/h (0 Bft) SO 135 13,6 C 15,9 C
10.09.2012 03:06 15,8 C 86 % 1013,6 hPa 0,0 l/m 0,0 km/h (0 Bft) SO 135 13,5 C 15,8 C
10.09.2012 03:11 15,8 C 86 % 1013,6 hPa 0,0 l/m 1,8 km/h (1 Bft) SO 135 13,5 C 15,8 C
10.09.2012 03:16 15,6 C 86 % 1013,6 hPa 0,0 l/m 3,2 km/h (1 Bft) SO 135 13,3 C 15,6 C
10.09.2012 03:21 15,6 C 87 % 1013,8 hPa 0,0 l/m 1,1 km/h (1 Bft) SO 135 13,4 C 15,6 C
10.09.2012 03:26 15,5 C 87 % 1013,7 hPa 0,0 l/m 2,2 km/h (1 Bft) SO 135 13,3 C 15,5 C
10.09.2012 03:31 15,5 C 87 % 1013,7 hPa 0,0 l/m 1,4 km/h (1 Bft) SO 135 13,3 C 15,5 C
10.09.2012 03:36 15,4 C 87 % 1013,6 hPa 0,0 l/m 0,0 km/h (0 Bft) SO 135 13,2 C 15,4 C
10.09.2012 03:41 15,4 C 87 % 1013,6 hPa 0,0 l/m 1,8 km/h (1 Bft) O-SO 112 13,2 C 15,4 C
10.09.2012 03:46 15,3 C 87 % 1013,7 hPa 0,0 l/m 0,0 km/h (0 Bft) O-SO 112 13,1 C 15,3 C
10.09.2012 03:51 15,3 C 87 % 1013,6 hPa 0,0 l/m 2,5 km/h (1 Bft) O-SO 112 13,1 C 15,3 C
10.09.2012 03:56 15,2 C 87 % 1013,6 hPa 0,0 l/m 1,4 km/h (1 Bft) SO 135 13,0 C 15,2 C
10.09.2012 04:01 15,1 C 87 % 1013,5 hPa 0,0 l/m 0,0 km/h (0 Bft) S-SO 157 13,0 C 15,1 C
10.09.2012 04:06 15,1 C 88 % 1013,5 hPa 0,0 l/m 1,8 km/h (1 Bft) O-SO 112 13,1 C 15,1 C
10.09.2012 04:11 15,1 C 88 % 1013,5 hPa 0,0 l/m 0,0 km/h (0 Bft) SO 135 13,1 C 15,1 C
10.09.2012 04:16 15,1 C 88 % 1013,5 hPa 0,0 l/m 0,0 km/h (0 Bft) SO 135 13,1 C 15,1 C
10.09.2012 04:21 15,0 C 88 % 1013,6 hPa 0,0 l/m 0,0 km/h (0 Bft) SO 135 13,0 C 15,0 C
10.09.2012 04:26 14,9 C 88 % 1013,5 hPa 0,0 l/m 1,1 km/h (1 Bft) SO 135 12,9 C 14,9 C
10.09.2012 04:31 14,9 C 88 % 1013,4 hPa 0,0 l/m 0,0 km/h (0 Bft) S-SO 157 12,9 C 14,9 C
10.09.2012 04:36 14,9 C 88 % 1013,7 hPa 0,0 l/m 0,0 km/h (0 Bft) S-SO 157 12,9 C 14,9 C
10.09.2012 04:41 14,9 C 88 % 1013,5 hPa 0,0 l/m 0,0 km/h (0 Bft) S-SO 157 12,9 C 14,9 C
10.09.2012 04:46 14,9 C 88 % 1013,5 hPa 0,0 l/m 0,0 km/h (0 Bft) S-SO 157 12,9 C 14,9 C
10.09.2012 04:51 14,8 C 88 % 1013,4 hPa 0,0 l/m 0,0 km/h (0 Bft) S-SO 157 12,8 C 14,8 C
10.09.2012 04:56 14,8 C 88 % 1013,4 hPa 0,0 l/m 0,0 km/h (0 Bft) S-SO 157 12,8 C 14,8 C
10.09.2012 05:01 14,6 C 88 % 1013,3 hPa 0,0 l/m 0,0 km/h (0 Bft) S-SO 157 12,6 C 14,6 C
10.09.2012 05:06 14,6 C 88 % 1013,5 hPa 0,0 l/m 1,1 km/h (1 Bft) S-SO 157 12,6 C 14,6 C
10.09.2012 05:11 14,5 C 88 % 1013,5 hPa 0,0 l/m 0,0 km/h (0 Bft) SO 135 12,5 C 14,5 C
10.09.2012 05:16 14,5 C 88 % 1013,5 hPa 0,0 l/m 0,0 km/h (0 Bft) SO 135 12,5 C 14,5 C
10.09.2012 05:21 14,4 C 88 % 1013,5 hPa 0,0 l/m 0,0 km/h (0 Bft) SO 135 12,4 C 14,4 C
10.09.2012 05:26 14,4 C 88 % 1013,4 hPa 0,0 l/m 2,2 km/h (1 Bft) SO 135 12,4 C 14,4 C
10.09.2012 05:31 14,3 C 88 % 1013,4 hPa 0,0 l/m 0,0 km/h (0 Bft) SO 135 12,3 C 14,3 C
10.09.2012 05:36 14,2 C 88 % 1013,4 hPa 0,0 l/m 0,0 km/h (0 Bft) SO 135 12,2 C 14,2 C
10.09.2012 05:41 14,2 C 88 % 1013,5 hPa 0,0 l/m 1,4 km/h (1 Bft) SO 135 12,2 C 14,2 C
10.09.2012 05:46 14,1 C 89 % 1013,5 hPa 0,0 l/m 2,2 km/h (1 Bft) SO 135 12,3 C 14,1 C
10.09.2012 05:51 14,1 C 89 % 1013,4 hPa 0,0 l/m 2,2 km/h (1 Bft) SO 135 12,3 C 14,1 C
10.09.2012 05:56 14,1 C 89 % 1013,5 hPa 0,0 l/m 2,9 km/h (1 Bft) SO 135 12,3 C 14,1 C
10.09.2012 06:01 14,1 C 89 % 1013,4 hPa 0,0 l/m 2,5 km/h (1 Bft) S-SO 157 12,3 C 14,1 C
10.09.2012 06:06 14,2 C 89 % 1013,4 hPa 0,0 l/m 2,5 km/h (1 Bft) S-SO 157 12,4 C 14,2 C
10.09.2012 06:11 14,3 C 89 % 1013,3 hPa 0,0 l/m 3,2 km/h (1 Bft) S-SO 157 12,5 C 14,3 C
10.09.2012 06:16 14,3 C 89 % 1013,3 hPa 0,0 l/m 5,0 km/h (1 Bft) S-SO 157 12,5 C 14,3 C
10.09.2012 06:21 14,4 C 89 % 1013,3 hPa 0,0 l/m 4,3 km/h (1 Bft) SO 135 12,6 C 14,4 C
10.09.2012 06:26 14,4 C 89 % 1013,3 hPa 0,0 l/m 4,0 km/h (1 Bft) SO 135 12,6 C 14,4 C
10.09.2012 06:31 14,4 C 89 % 1013,3 hPa 0,0 l/m 1,8 km/h (1 Bft) S-SO 157 12,6 C 14,4 C
10.09.2012 06:36 14,5 C 89 % 1013,3 hPa 0,0 l/m 0,0 km/h (0 Bft) O-SO 112 12,7 C 14,5 C
10.09.2012 06:41 14,5 C 89 % 1013,0 hPa 0,0 l/m 3,2 km/h (1 Bft) O-SO 112 12,7 C 14,5 C
10.09.2012 06:46 14,5 C 89 % 1013,4 hPa 0,0 l/m 3,2 km/h (1 Bft) SO 135 12,7 C 14,5 C
10.09.2012 06:51 14,4 C 89 % 1013,6 hPa 0,0 l/m 6,8 km/h (2 Bft) SO 135 12,6 C 14,4 C
10.09.2012 06:56 14,5 C 89 % 1013,5 hPa 0,0 l/m 1,4 km/h (1 Bft) SO 135 12,7 C 14,5 C
10.09.2012 07:01 14,5 C 89 % 1013,4 hPa 0,0 l/m 0,0 km/h (0 Bft) SO 135 12,7 C 14,5 C
10.09.2012 07:06 14,5 C 89 % 1013,5 hPa 0,0 l/m 0,0 km/h (0 Bft) SO 135 12,7 C 14,5 C
10.09.2012 07:11 14,5 C 89 % 1013,5 hPa 0,0 l/m 0,0 km/h (0 Bft) SO 135 12,7 C 14,5 C
10.09.2012 07:16 14,6 C 89 % 1013,6 hPa 0,0 l/m 2,5 km/h (1 Bft) SO 135 12,8 C 14,6 C
10.09.2012 07:21 14,8 C 89 % 1013,6 hPa 0,0 l/m 2,2 km/h (1 Bft) S-SO 157 13,0 C 14,8 C
10.09.2012 07:26 14,9 C 89 % 1013,8 hPa 0,0 l/m 4,3 km/h (1 Bft) S-SO 157 13,1 C 14,9 C
10.09.2012 07:31 15,2 C 89 % 1013,9 hPa 0,0 l/m 2,5 km/h (1 Bft) S-SW 202 13,4 C 15,2 C
10.09.2012 07:36 15,4 C 88 % 1013,8 hPa 0,0 l/m 0,0 km/h (0 Bft) S-SO 157 13,4 C 15,4 C
10.09.2012 07:41 15,6 C 88 % 1013,8 hPa 0,0 l/m 0,0 km/h (0 Bft) S-SO 157 13,6 C 15,6 C
10.09.2012 07:46 15,8 C 87 % 1013,7 hPa 0,0 l/m 1,4 km/h (1 Bft) S-SW 202 13,6 C 15,8 C
10.09.2012 07:51 15,9 C 87 % 1013,8 hPa 0,0 l/m 0,0 km/h (0 Bft) S 180 13,7 C 15,9 C
10.09.2012 07:56 16,1 C 87 % 1013,8 hPa 0,0 l/m 0,0 km/h (0 Bft) S-SO 157 13,9 C 16,1 C
10.09.2012 08:01 16,4 C 87 % 1013,9 hPa 0,0 l/m 2,9 km/h (1 Bft) S-SO 157 14,2 C 16,4 C
10.09.2012 08:06 16,4 C 86 % 1013,9 hPa 0,0 l/m 0,0 km/h (0 Bft) W-SW 247 14,1 C 16,4 C
10.09.2012 08:11 16,6 C 86 % 1013,9 hPa 0,0 l/m 5,0 km/h (1 Bft) S 180 14,2 C 16,6 C
10.09.2012 08:16 16,8 C 85 % 1014,0 hPa 0,0 l/m 1,4 km/h (1 Bft) S-SO 157 14,3 C 16,8 C
10.09.2012 08:21 16,9 C 85 % 1014,0 hPa 0,0 l/m 0,0 km/h (0 Bft) S 180 14,4 C 16,9 C
10.09.2012 08:26 17,0 C 85 % 1014,0 hPa 0,0 l/m 4,0 km/h (1 Bft) S 180 14,5 C 17,0 C
10.09.2012 08:31 17,1 C 85 % 1014,0 hPa 0,0 l/m 2,5 km/h (1 Bft) S 180 14,6 C 17,1 C
10.09.2012 08:36 17,3 C 84 % 1013,9 hPa 0,0 l/m 4,7 km/h (1 Bft) S-SW 202 14,6 C 17,3 C
10.09.2012 08:41 17,6 C 84 % 1013,9 hPa 0,0 l/m 0,0 km/h (0 Bft) S-SW 202 14,9 C 17,6 C
10.09.2012 08:46 17,8 C 84 % 1014,0 hPa 0,0 l/m 3,6 km/h (1 Bft) S 180 15,1 C 17,8 C
10.09.2012 08:51 18,1 C 83 % 1014,1 hPa 0,0 l/m 3,6 km/h (1 Bft) S 180 15,2 C 18,1 C
10.09.2012 08:56 18,4 C 83 % 1014,2 hPa 0,0 l/m 1,4 km/h (1 Bft) S 180 15,5 C 18,4 C
10.09.2012 09:01 18,5 C 81 % 1014,2 hPa 0,0 l/m 1,8 km/h (1 Bft) S-SW 202 15,2 C 18,5 C
10.09.2012 09:06 18,8 C 81 % 1014,1 hPa 0,0 l/m 3,2 km/h (1 Bft) S-SO 157 15,5 C 18,8 C
10.09.2012 09:11 19,0 C 80 % 1014,1 hPa 0,0 l/m 0,0 km/h (0 Bft) S-SO 157 15,5 C 19,0 C
10.09.2012 09:16 19,3 C 80 % 1014,2 hPa 0,0 l/m 2,2 km/h (1 Bft) S-SW 202 15,8 C 19,3 C
10.09.2012 09:21 19,5 C 78 % 1014,2 hPa 0,0 l/m 4,0 km/h (1 Bft) S 180 15,6 C 19,5 C
10.09.2012 09:26 19,8 C 77 % 1014,2 hPa 0,0 l/m 2,5 km/h (1 Bft) W-SW 247 15,6 C 19,8 C
10.09.2012 09:31 20,1 C 76 % 1014,2 hPa 0,0 l/m 0,0 km/h (0 Bft) W-SW 247 15,7 C 20,1 C
10.09.2012 09:36 20,3 C 75 % 1014,3 hPa 0,0 l/m 1,8 km/h (1 Bft) W-SW 247 15,7 C 20,3 C
10.09.2012 09:41 20,7 C 74 % 1014,3 hPa 0,0 l/m 0,0 km/h (0 Bft) SW 225 15,9 C 20,7 C
10.09.2012 09:46 20,9 C 72 % 1014,3 hPa 0,0 l/m 3,2 km/h (1 Bft) W-SW 247 15,7 C 20,9 C
10.09.2012 09:51 21,3 C 70 % 1014,3 hPa 0,0 l/m 1,8 km/h (1 Bft) SW 225 15,6 C 21,3 C
10.09.2012 09:56 21,5 C 69 % 1014,4 hPa 0,0 l/m 6,5 km/h (2 Bft) W 270 15,6 C 21,5 C
10.09.2012 10:01 21,6 C 67 % 1014,4 hPa 0,0 l/m 3,6 km/h (1 Bft) W-SW 247 15,2 C 21,6 C
10.09.2012 10:06 21,8 C 67 % 1014,3 hPa 0,0 l/m 3,6 km/h (1 Bft) SW 225 15,4 C 21,8 C
10.09.2012 10:11 21,8 C 67 % 1014,4 hPa 0,0 l/m 3,6 km/h (1 Bft) W-SW 247 15,4 C 21,8 C
10.09.2012 10:16 21,9 C 67 % 1014,4 hPa 0,0 l/m 2,9 km/h (1 Bft) S-SW 202 15,5 C 21,9 C
10.09.2012 10:21 22,1 C 66 % 1014,5 hPa 0,0 l/m 4,7 km/h (1 Bft) S-SW 202 15,4 C 22,1 C
10.09.2012 10:26 22,3 C 65 % 1014,5 hPa 0,0 l/m 5,0 km/h (1 Bft) W-SW 247 15,4 C 22,3 C
10.09.2012 10:31 22,5 C 64 % 1014,6 hPa 0,0 l/m 1,8 km/h (1 Bft) SW 225 15,3 C 22,5 C
10.09.2012 10:36 22,8 C 64 % 1014,5 hPa 0,0 l/m 2,5 km/h (1 Bft) S-SW 202 15,6 C 22,8 C
10.09.2012 10:41 23,0 C 63 % 1014,4 hPa 0,0 l/m 5,0 km/h (1 Bft) W-SW 247 15,6 C 23,0 C
10.09.2012 10:46 23,3 C 62 % 1014,5 hPa 0,0 l/m 5,0 km/h (1 Bft) S 180 15,6 C 23,3 C
10.09.2012 10:51 23,5 C 60 % 1014,6 hPa 0,0 l/m 0,0 km/h (0 Bft) SW 225 15,3 C 23,5 C
10.09.2012 10:56 23,9 C 60 % 1014,5 hPa 0,0 l/m 4,0 km/h (1 Bft) SW 225 15,7 C 23,9 C
10.09.2012 11:01 24,1 C 59 % 1014,6 hPa 0,0 l/m 2,5 km/h (1 Bft) W-SW 247 15,6 C 24,1 C
10.09.2012 11:06 24,3 C 57 % 1014,6 hPa 0,0 l/m 8,3 km/h (2 Bft) W 270 15,2 C 24,3 C
10.09.2012 11:11 24,5 C 57 % 1014,6 hPa 0,0 l/m 7,9 km/h (2 Bft) W-SW 247 15,4 C 24,5 C
10.09.2012 11:16 24,6 C 56 % 1014,5 hPa 0,0 l/m 5,8 km/h (2 Bft) W 270 15,2 C 24,6 C
10.09.2012 11:21 24,8 C 56 % 1014,7 hPa 0,0 l/m 6,1 km/h (2 Bft) W-SW 247 15,4 C 24,8 C
10.09.2012 11:26 24,9 C 55 % 1014,6 hPa 0,0 l/m 6,5 km/h (2 Bft) SW 225 15,2 C 24,9 C
10.09.2012 11:31 25,0 C 54 % 1014,5 hPa 0,0 l/m 2,5 km/h (1 Bft) S-SW 202 15,0 C 25,0 C
10.09.2012 11:36 25,1 C 54 % 1014,6 hPa 0,0 l/m 1,8 km/h (1 Bft) W 270 15,1 C 25,1 C
10.09.2012 11:41 25,3 C 53 % 1014,6 hPa 0,0 l/m 5,8 km/h (2 Bft) S-SW 202 15,0 C 25,3 C
10.09.2012 11:46 25,4 C 53 % 1014,5 hPa 0,0 l/m 4,7 km/h (1 Bft) SW 225 15,1 C 25,4 C
10.09.2012 11:51 25,6 C 52 % 1014,6 hPa 0,0 l/m 5,0 km/h (1 Bft) SW 225 15,0 C 25,6 C
10.09.2012 11:56 25,9 C 52 % 1014,5 hPa 0,0 l/m 8,3 km/h (2 Bft) S 180 15,3 C 25,9 C
10.09.2012 12:01 26,1 C 51 % 1014,4 hPa 0,0 l/m 5,0 km/h (1 Bft) S-SW 202 15,2 C 26,1 C
10.09.2012 12:06 26,3 C 50 % 1014,3 hPa 0,0 l/m 9,4 km/h (2 Bft) W-SW 247 15,0 C 26,3 C
10.09.2012 12:11 26,4 C 49 % 1014,3 hPa 0,0 l/m 5,0 km/h (1 Bft) W 270 14,8 C 26,4 C
10.09.2012 12:16 26,6 C 48 % 1014,3 hPa 0,0 l/m 5,8 km/h (2 Bft) SW 225 14,7 C 26,6 C
10.09.2012 12:21 26,8 C 47 % 1014,5 hPa 0,0 l/m 7,9 km/h (2 Bft) SW 225 14,5 C 26,8 C
10.09.2012 12:26 27,1 C 46 % 1014,5 hPa 0,0 l/m 6,5 km/h (2 Bft) W-SW 247 14,5 C 27,1 C
10.09.2012 12:31 27,2 C 45 % 1014,3 hPa 0,0 l/m 17,6 km/h (3 Bft) W-SW 247 14,2 C 27,2 C
10.09.2012 12:36 27,4 C 45 % 1014,2 hPa 0,0 l/m 3,2 km/h (1 Bft) S-SW 202 14,4 C 27,4 C
10.09.2012 12:41 27,5 C 44 % 1014,1 hPa 0,0 l/m 3,6 km/h (1 Bft) S-SW 202 14,1 C 27,5 C
10.09.2012 12:46 27,7 C 44 % 1014,2 hPa 0,0 l/m 4,7 km/h (1 Bft) W-SW 247 14,3 C 27,7 C
10.09.2012 12:51 27,9 C 41 % 1014,1 hPa 0,0 l/m 7,2 km/h (2 Bft) W 270 13,4 C 27,9 C
10.09.2012 12:56 27,9 C 41 % 1014,1 hPa 0,0 l/m 4,7 km/h (1 Bft) W-SW 247 13,4 C 27,9 C
10.09.2012 13:01 28,1 C 41 % 1014,1 hPa 0,0 l/m 3,2 km/h (1 Bft) W 270 13,6 C 28,1 C
10.09.2012 13:06 28,4 C 40 % 1014,1 hPa 0,0 l/m 12,6 km/h (3 Bft) W-SW 247 13,5 C 28,4 C
10.09.2012 13:11 28,5 C 37 % 1014,1 hPa 0,0 l/m 7,9 km/h (2 Bft) W-SW 247 12,4 C 28,5 C
10.09.2012 13:16 28,7 C 36 % 1014,2 hPa 0,0 l/m 6,1 km/h (2 Bft) SW 225 12,1 C 28,7 C
10.09.2012 13:21 28,8 C 36 % 1014,2 hPa 0,0 l/m 9,7 km/h (2 Bft) W-SW 247 12,2 C 28,8 C
10.09.2012 13:26 28,9 C 35 % 1014,2 hPa 0,0 l/m 2,5 km/h (1 Bft) W-NW 292 11,9 C 28,9 C
10.09.2012 13:31 29,1 C 34 % 1014,3 hPa 0,0 l/m 10,1 km/h (2 Bft) W 270 11,6 C 29,1 C
10.09.2012 13:36 29,2 C 33 % 1014,3 hPa 0,0 l/m 7,6 km/h (2 Bft) W 270 11,3 C 29,2 C
10.09.2012 13:41 29,1 C 33 % 1014,3 hPa 0,0 l/m 3,6 km/h (1 Bft) S 180 11,2 C 29,1 C
10.09.2012 13:46 29,2 C 33 % 1014,3 hPa 0,0 l/m 6,1 km/h (2 Bft) S-SW 202 11,3 C 29,2 C
10.09.2012 13:51 29,2 C 32 % 1014,3 hPa 0,0 l/m 2,2 km/h (1 Bft) N-NW 337 10,8 C 29,2 C
10.09.2012 13:56 29,1 C 32 % 1014,2 hPa 0,0 l/m 5,0 km/h (1 Bft) SW 225 10,7 C 29,1 C
10.09.2012 14:01 29,1 C 33 % 1014,3 hPa 0,0 l/m 4,0 km/h (1 Bft) W-SW 247 11,2 C 29,1 C
10.09.2012 14:06 29,1 C 32 % 1014,2 hPa 0,0 l/m 13,0 km/h (3 Bft) W-SW 247 10,7 C 29,1 C
10.09.2012 14:11 29,1 C 32 % 1014,2 hPa 0,0 l/m 5,4 km/h (1 Bft) W-SW 247 10,7 C 29,1 C
10.09.2012 14:16 29,3 C 32 % 1014,2 hPa 0,0 l/m 6,8 km/h (2 Bft) W-SW 247 10,9 C 29,3 C
10.09.2012 14:21 29,3 C 32 % 1013,9 hPa 0,0 l/m 20,2 km/h (4 Bft) W 270 10,9 C 29,3 C
10.09.2012 14:26 29,3 C 32 % 1014,0 hPa 0,0 l/m 9,0 km/h (2 Bft) W-NW 292 10,9 C 29,3 C
10.09.2012 14:31 29,4 C 32 % 1013,9 hPa 0,0 l/m 7,2 km/h (2 Bft) W-SW 247 11,0 C 29,4 C
10.09.2012 14:36 29,6 C 32 % 1013,9 hPa 0,0 l/m 4,7 km/h (1 Bft) W 270 11,1 C 29,6 C
10.09.2012 14:41 29,6 C 30 % 1013,9 hPa 0,0 l/m 14,4 km/h (3 Bft) W-SW 247 10,2 C 29,6 C
10.09.2012 14:46 29,6 C 31 % 1013,9 hPa 0,0 l/m 10,1 km/h (2 Bft) W-SW 247 10,7 C 29,6 C
10.09.2012 14:51 29,6 C 31 % 1013,9 hPa 0,0 l/m 6,1 km/h (2 Bft) SW 225 10,7 C 29,6 C
10.09.2012 14:56 29,8 C 32 % 1013,8 hPa 0,0 l/m 17,3 km/h (3 Bft) W-SW 247 11,3 C 29,8 C
10.09.2012 15:01 29,9 C 30 % 1013,8 hPa 0,0 l/m 10,1 km/h (2 Bft) W-SW 247 10,4 C 29,9 C
10.09.2012 15:06 29,9 C 30 % 1013,7 hPa 0,0 l/m 9,4 km/h (2 Bft) W-SW 247 10,4 C 29,9 C
10.09.2012 15:11 29,9 C 30 % 1013,6 hPa 0,0 l/m 16,6 km/h (3 Bft) SW 225 10,4 C 29,9 C
10.09.2012 15:16 30,0 C 30 % 1013,8 hPa 0,0 l/m 4,0 km/h (1 Bft) W 270 10,5 C 30,0 C
10.09.2012 15:21 30,1 C 29 % 1013,7 hPa 0,0 l/m 4,3 km/h (1 Bft) W-SW 247 10,1 C 30,1 C
10.09.2012 15:26 30,2 C 30 % 1013,5 hPa 0,0 l/m 14,8 km/h (3 Bft) W 270 10,7 C 30,2 C
10.09.2012 15:31 30,3 C 29 % 1013,6 hPa 0,0 l/m 8,6 km/h (2 Bft) S 180 10,3 C 30,3 C
10.09.2012 15:36 30,4 C 30 % 1013,6 hPa 0,0 l/m 14,4 km/h (3 Bft) W-SW 247 10,9 C 30,4 C
10.09.2012 15:41 30,4 C 30 % 1013,6 hPa 0,0 l/m 4,3 km/h (1 Bft) W-SW 247 10,9 C 30,4 C
10.09.2012 15:46 30,4 C 30 % 1013,7 hPa 0,0 l/m 9,4 km/h (2 Bft) W-SW 247 10,9 C 30,4 C
10.09.2012 15:51 30,4 C 30 % 1013,7 hPa 0,0 l/m 4,3 km/h (1 Bft) W-SW 247 10,9 C 30,4 C
10.09.2012 15:56 30,3 C 30 % 1013,7 hPa 0,0 l/m 6,1 km/h (2 Bft) S-SW 202 10,8 C 30,3 C
10.09.2012 16:01 30,3 C 30 % 1013,8 hPa 0,0 l/m 9,7 km/h (2 Bft) W-SW 247 10,8 C 30,3 C
10.09.2012 16:06 30,2 C 30 % 1013,7 hPa 0,0 l/m 10,8 km/h (2 Bft) W-SW 247 10,7 C 30,2 C
10.09.2012 16:11 30,3 C 32 % 1013,6 hPa 0,0 l/m 6,5 km/h (2 Bft) SW 225 11,7 C 30,3 C
10.09.2012 16:16 30,3 C 32 % 1013,5 hPa 0,0 l/m 14,8 km/h (3 Bft) S-SW 202 11,7 C 30,3 C
10.09.2012 16:21 30,3 C 31 % 1013,6 hPa 0,0 l/m 2,5 km/h (1 Bft) S-SO 157 11,3 C 30,3 C
10.09.2012 16:26 30,4 C 32 % 1013,5 hPa 0,0 l/m 2,5 km/h (1 Bft) S 180 11,8 C 30,4 C
10.09.2012 16:31 30,3 C 32 % 1013,5 hPa 0,0 l/m 3,2 km/h (1 Bft) S-SW 202 11,7 C 30,3 C
10.09.2012 16:36 30,1 C 30 % 1013,4 hPa 0,0 l/m 4,0 km/h (1 Bft) S-SW 202 10,6 C 30,1 C
10.09.2012 16:41 29,9 C 31 % 1013,4 hPa 0,0 l/m 4,3 km/h (1 Bft) W 270 10,9 C 29,9 C
10.09.2012 16:46 29,6 C 32 % 1013,4 hPa 0,0 l/m 4,0 km/h (1 Bft) SW 225 11,1 C 29,6 C
10.09.2012 16:51 29,5 C 32 % 1013,4 hPa 0,0 l/m 1,4 km/h (1 Bft) S 180 11,0 C 29,5 C
10.09.2012 16:56 29,4 C 32 % 1013,4 hPa 0,0 l/m 4,3 km/h (1 Bft) S 180 11,0 C 29,4 C
10.09.2012 17:01 29,4 C 33 % 1013,4 hPa 0,0 l/m 4,7 km/h (1 Bft) S 180 11,4 C 29,4 C
10.09.2012 17:06 29,4 C 33 % 1013,5 hPa 0,0 l/m 5,0 km/h (1 Bft) SW 225 11,4 C 29,4 C
10.09.2012 17:11 29,4 C 33 % 1013,4 hPa 0,0 l/m 6,1 km/h (2 Bft) W-SW 247 11,4 C 29,4 C
10.09.2012 17:16 29,2 C 33 % 1013,4 hPa 0,0 l/m 12,2 km/h (2 Bft) SW 225 11,3 C 29,2 C
10.09.2012 17:21 29,1 C 33 % 1013,3 hPa 0,0 l/m 7,6 km/h (2 Bft) S-SW 202 11,2 C 29,1 C
10.09.2012 17:26 28,9 C 33 % 1013,4 hPa 0,0 l/m 3,6 km/h (1 Bft) S-SW 202 11,0 C 28,9 C
10.09.2012 17:31 28,9 C 34 % 1013,4 hPa 0,0 l/m 4,0 km/h (1 Bft) SO 135 11,4 C 28,9 C
10.09.2012 17:36 28,9 C 34 % 1013,4 hPa 0,0 l/m 0,0 km/h (0 Bft) S 180 11,4 C 28,9 C
10.09.2012 17:41 28,9 C 34 % 1013,4 hPa 0,0 l/m 6,1 km/h (2 Bft) S-SW 202 11,4 C 28,9 C
10.09.2012 17:46 28,9 C 34 % 1013,4 hPa 0,0 l/m 1,8 km/h (1 Bft) SW 225 11,4 C 28,9 C
10.09.2012 17:51 28,9 C 34 % 1013,3 hPa 0,0 l/m 1,1 km/h (1 Bft) W 270 11,4 C 28,9 C
10.09.2012 17:56 28,9 C 34 % 1013,4 hPa 0,0 l/m 3,6 km/h (1 Bft) S-SW 202 11,4 C 28,9 C
10.09.2012 18:01 28,9 C 34 % 1013,4 hPa 0,0 l/m 3,2 km/h (1 Bft) S-SW 202 11,4 C 28,9 C
10.09.2012 18:06 28,8 C 34 % 1013,4 hPa 0,0 l/m 7,9 km/h (2 Bft) S 180 11,4 C 28,8 C
10.09.2012 18:11 28,7 C 33 % 1013,3 hPa 0,0 l/m 4,0 km/h (1 Bft) S-SO 157 10,8 C 28,7 C
10.09.2012 18:16 28,6 C 33 % 1013,3 hPa 0,0 l/m 6,1 km/h (2 Bft) S 180 10,7 C 28,6 C
10.09.2012 18:21 28,5 C 33 % 1013,3 hPa 0,0 l/m 2,2 km/h (1 Bft) S-SW 202 10,6 C 28,5 C
10.09.2012 18:26 28,4 C 33 % 1013,3 hPa 0,0 l/m 0,0 km/h (0 Bft) S 180 10,6 C 28,4 C
10.09.2012 18:31 28,3 C 34 % 1013,4 hPa 0,0 l/m 1,1 km/h (1 Bft) SW 225 10,9 C 28,3 C
10.09.2012 18:36 28,1 C 34 % 1013,4 hPa 0,0 l/m 0,0 km/h (0 Bft) S-SW 202 10,7 C 28,1 C
10.09.2012 18:41 27,9 C 34 % 1013,3 hPa 0,0 l/m 0,0 km/h (0 Bft) S-SO 157 10,6 C 27,9 C
10.09.2012 18:46 27,6 C 34 % 1013,4 hPa 0,0 l/m 1,1 km/h (1 Bft) S-SO 157 10,3 C 27,6 C
10.09.2012 18:51 27,3 C 35 % 1013,2 hPa 0,0 l/m 0,0 km/h (0 Bft) S 180 10,5 C 27,3 C
10.09.2012 18:56 26,9 C 36 % 1013,4 hPa 0,0 l/m 2,5 km/h (1 Bft) S 180 10,6 C 26,9 C
10.09.2012 19:01 26,6 C 36 % 1013,4 hPa 0,0 l/m 2,2 km/h (1 Bft) S 180 10,3 C 26,6 C
10.09.2012 19:06 26,3 C 37 % 1013,5 hPa 0,0 l/m 0,0 km/h (0 Bft) SW 225 10,4 C 26,3 C
10.09.2012 19:11 25,9 C 36 % 1013,2 hPa 0,0 l/m 1,1 km/h (1 Bft) W 270 9,7 C 25,9 C
10.09.2012 19:16 25,6 C 37 % 1013,2 hPa 0,0 l/m 0,0 km/h (0 Bft) W 270 9,8 C 25,6 C
10.09.2012 19:21 25,3 C 38 % 1013,2 hPa 0,0 l/m 0,0 km/h (0 Bft) W 270 9,9 C 25,3 C
10.09.2012 19:26 25,0 C 39 % 1013,2 hPa 0,0 l/m 0,0 km/h (0 Bft) SW 225 10,1 C 25,0 C
10.09.2012 19:31 24,6 C 40 % 1013,3 hPa 0,0 l/m 0,0 km/h (0 Bft) SW 225 10,1 C 24,6 C
10.09.2012 19:36 24,4 C 41 % 1013,3 hPa 0,0 l/m 0,0 km/h (0 Bft) SW 225 10,3 C 24,4 C
10.09.2012 19:41 24,1 C 42 % 1013,4 hPa 0,0 l/m 0,0 km/h (0 Bft) SW 225 10,4 C 24,1 C
10.09.2012 19:46 23,8 C 43 % 1013,3 hPa 0,0 l/m 0,0 km/h (0 Bft) SW 225 10,5 C 23,8 C
10.09.2012 19:51 23,4 C 44 % 1013,4 hPa 0,0 l/m 0,0 km/h (0 Bft) SW 225 10,4 C 23,4 C
10.09.2012 19:56 23,1 C 44 % 1013,5 hPa 0,0 l/m 0,0 km/h (0 Bft) SW 225 10,2 C 23,1 C
10.09.2012 20:01 22,9 C 45 % 1013,5 hPa 0,0 l/m 0,0 km/h (0 Bft) SW 225 10,3 C 22,9 C
10.09.2012 20:06 22,6 C 46 % 1013,6 hPa 0,0 l/m 0,0 km/h (0 Bft) SW 225 10,4 C 22,6 C
10.09.2012 20:11 22,3 C 47 % 1013,6 hPa 0,0 l/m 0,0 km/h (0 Bft) SW 225 10,4 C 22,3 C
10.09.2012 20:16 22,1 C 48 % 1013,6 hPa 0,0 l/m 0,0 km/h (0 Bft) SW 225 10,6 C 22,1 C
10.09.2012 20:21 21,8 C 49 % 1013,6 hPa 0,0 l/m 0,0 km/h (0 Bft) S 180 10,6 C 21,8 C
10.09.2012 20:26 21,6 C 50 % 1013,7 hPa 0,0 l/m 0,0 km/h (0 Bft) S 180 10,7 C 21,6 C
10.09.2012 20:31 21,4 C 50 % 1013,7 hPa 0,0 l/m 0,0 km/h (0 Bft) S 180 10,5 C 21,4 C
10.09.2012 20:36 21,3 C 51 % 1013,7 hPa 0,0 l/m 0,0 km/h (0 Bft) S 180 10,7 C 21,3 C
10.09.2012 20:41 21,1 C 53 % 1013,7 hPa 0,0 l/m 0,0 km/h (0 Bft) S 180 11,1 C 21,1 C
10.09.2012 20:46 21,0 C 54 % 1013,8 hPa 0,0 l/m 0,0 km/h (0 Bft) S 180 11,3 C 21,0 C
10.09.2012 20:51 20,9 C 53 % 1013,9 hPa 0,0 l/m 0,0 km/h (0 Bft) SO 135 11,0 C 20,9 C
10.09.2012 20:56 20,9 C 52 % 1013,9 hPa 0,0 l/m 0,0 km/h (0 Bft) S-SO 157 10,7 C 20,9 C
10.09.2012 21:01 21,0 C 52 % 1013,9 hPa 0,0 l/m 3,2 km/h (1 Bft) S-SO 157 10,8 C 21,0 C
10.09.2012 21:06 21,0 C 51 % 1014,0 hPa 0,0 l/m 1,1 km/h (1 Bft) S-SO 157 10,5 C 21,0 C
10.09.2012 21:11 20,9 C 51 % 1013,9 hPa 0,0 l/m 1,4 km/h (1 Bft) S-SO 157 10,4 C 20,9 C
10.09.2012 21:16 20,8 C 52 % 1014,0 hPa 0,0 l/m 0,0 km/h (0 Bft) S-SO 157 10,6 C 20,8 C
10.09.2012 21:21 20,7 C 52 % 1014,0 hPa 0,0 l/m 0,0 km/h (0 Bft) S-SO 157 10,5 C 20,7 C
10.09.2012 21:26 20,5 C 52 % 1013,9 hPa 0,0 l/m 2,2 km/h (1 Bft) S-SO 157 10,3 C 20,5 C
10.09.2012 21:31 20,3 C 53 % 1014,0 hPa 0,0 l/m 0,0 km/h (0 Bft) S-SO 157 10,4 C 20,3 C
10.09.2012 21:36 20,1 C 53 % 1014,0 hPa 0,0 l/m 2,2 km/h (1 Bft) S-SO 157 10,2 C 20,1 C
10.09.2012 21:41 19,9 C 54 % 1013,8 hPa 0,0 l/m 2,5 km/h (1 Bft) S-SO 157 10,3 C 19,9 C
10.09.2012 21:46 19,8 C 54 % 1013,9 hPa 0,0 l/m 2,2 km/h (1 Bft) S-SO 157 10,2 C 19,8 C
10.09.2012 21:51 19,6 C 55 % 1013,9 hPa 0,0 l/m 0,0 km/h (0 Bft) S-SO 157 10,3 C 19,6 C
10.09.2012 21:56 19,6 C 56 % 1013,9 hPa 0,0 l/m 0,0 km/h (0 Bft) S-SO 157 10,6 C 19,6 C
10.09.2012 22:01 19,4 C 56 % 1013,8 hPa 0,0 l/m 2,2 km/h (1 Bft) S-SO 157 10,4 C 19,4 C
10.09.2012 22:06 19,3 C 57 % 1013,9 hPa 0,0 l/m 2,5 km/h (1 Bft) S-SO 157 10,6 C 19,3 C
10.09.2012 22:11 19,2 C 57 % 1014,0 hPa 0,0 l/m 3,2 km/h (1 Bft) S-SO 157 10,5 C 19,2 C
10.09.2012 22:16 19,1 C 57 % 1014,0 hPa 0,0 l/m 1,4 km/h (1 Bft) S-SO 157 10,4 C 19,1 C
10.09.2012 22:21 19,1 C 57 % 1014,1 hPa 0,0 l/m 1,4 km/h (1 Bft) S-SO 157 10,4 C 19,1 C
10.09.2012 22:26 19,1 C 57 % 1013,9 hPa 0,0 l/m 0,0 km/h (0 Bft) S-SO 157 10,4 C 19,1 C
10.09.2012 22:31 19,0 C 58 % 1014,0 hPa 0,0 l/m 3,2 km/h (1 Bft) S-SO 157 10,5 C 19,0 C
10.09.2012 22:36 19,1 C 58 % 1014,0 hPa 0,0 l/m 4,0 km/h (1 Bft) S-SO 157 10,6 C 19,1 C
10.09.2012 22:41 19,2 C 58 % 1014,0 hPa 0,0 l/m 6,1 km/h (2 Bft) S 180 10,7 C 19,2 C
10.09.2012 22:46 19,2 C 57 % 1014,0 hPa 0,0 l/m 4,3 km/h (1 Bft) S-SO 157 10,5 C 19,2 C
10.09.2012 22:51 19,3 C 58 % 1014,0 hPa 0,0 l/m 2,2 km/h (1 Bft) S-SO 157 10,8 C 19,3 C
10.09.2012 22:56 19,2 C 58 % 1014,0 hPa 0,0 l/m 0,0 km/h (0 Bft) S-SO 157 10,7 C 19,2 C
10.09.2012 23:01 19,2 C 58 % 1014,1 hPa 0,0 l/m 3,2 km/h (1 Bft) S 180 10,7 C 19,2 C
10.09.2012 23:06 19,1 C 58 % 1014,2 hPa 0,0 l/m 0,0 km/h (0 Bft) S-SO 157 10,6 C 19,1 C
10.09.2012 23:11 18,9 C 58 % 1014,2 hPa 0,0 l/m 1,8 km/h (1 Bft) S-SW 202 10,5 C 18,9 C
10.09.2012 23:16 18,9 C 58 % 1014,0 hPa 0,0 l/m 2,2 km/h (1 Bft) S 180 10,5 C 18,9 C
10.09.2012 23:21 18,8 C 59 % 1014,0 hPa 0,0 l/m 2,5 km/h (1 Bft) S 180 10,6 C 18,8 C
10.09.2012 23:26 18,6 C 60 % 1014,0 hPa 0,0 l/m 0,0 km/h (0 Bft) S-SO 157 10,7 C 18,6 C
10.09.2012 23:31 18,5 C 60 % 1014,1 hPa 0,0 l/m 0,0 km/h (0 Bft) S-SO 157 10,6 C 18,5 C
10.09.2012 23:36 18,4 C 60 % 1014,0 hPa 0,0 l/m 0,0 km/h (0 Bft) S-SO 157 10,5 C 18,4 C
10.09.2012 23:41 18,3 C 60 % 1014,1 hPa 0,0 l/m 2,9 km/h (1 Bft) S-SO 157 10,4 C 18,3 C
10.09.2012 23:46 18,2 C 61 % 1014,1 hPa 0,0 l/m 1,8 km/h (1 Bft) S-SO 157 10,6 C 18,2 C
10.09.2012 23:51 18,1 C 62 % 1014,0 hPa 0,0 l/m 0,0 km/h (0 Bft) S-SO 157 10,7 C 18,1 C
10.09.2012 23:56 18,1 C 62 % 1014,0 hPa 0,0 l/m 0,0 km/h (0 Bft) S-SO 157 10,7 C 18,1 C
_ Min-Zeit 05:46 15:21 06:41 - 00:01 - - 19:11 05:46
Minimum _ 14,1 C 29 % 1013,0 hPa - 0,0 km/h (0 Bft) - - 9,7 C 14,1 C
_ Max-Zeit 15:36 05:46 00:06 00:01 14:21 - - 09:41 15:36
Maximum _ 30,4 C 89 % 1015,0 hPa 0,0 l/m 20,2 km/h
W (4 Bft)
- - 15,9 C 30,4 C
Durchschnitt _ 21,5 C 61 % 1013,9 hPa #0,0 l/m 3,4 km/h (1 Bft) S-SO - 12,5 C 21,5 C
(c) by David Heller